Terminal Aerodrome Forecast
Issued by NWS Cleveland, OH

Home | Current Version | Previous Version | Graphics & Text | Print | Product List | Glossary On
Versions: 1 2 3 4 5 6 7 8 9 10 11 12 13 14 15 16 17 18 19 20 21 22 23 24 25 26 27 28 29 30
857
FTUS41 KCLE 212031 AAB
TAFCLE
TAF AMD
KCLE 212031Z 2121/2224 19012G18KT P6SM SCT015 BKN035
     FM212300 22014KT P6SM -SHRA VCTS SCT015 OVC025CB
      TEMPO 2123/2201 22015G30KT 2SM -TSRA BKN015CB
     FM220200 24010KT P6SM BKN040
     FM220600 23007KT 6SM BR OVC025=

USA.gov is the U.S. government's official web portal to all federal, state and local government web resources and services.